Time;durP1;ratioP1;P1;durP2;ratioP2;P2;SDS_P1;SDS_P2;PMS_P1;PMS_P2;Temp;Humidity;BMP_temperature;BMP_pressure;BME280_temperature;BME280_humidity;BME280_pressure;Samples;Min_cycle;Max_cycle;Signal;HPM_P1;HPM_P2
2023/09/23 00:00:32;;;;;;;4.33;1.10;;;;;;;10.73;100.00;100515.84;4944289;28;20983;-78
2023/09/23 00:02:57;;;;;;;3.30;1.20;;;;;;;11.67;100.00;100707.16;4954142;28;20987;-79
2023/09/23 00:05:26;;;;;;;4.87;1.10;;;;;;;10.50;100.00;100512.72;4942766;28;20443;-78
2023/09/23 00:07:52;;;;;;;2.50;1.00;;;;;;;11.05;100.00;100651.03;4946002;28;20582;-80
2023/09/23 00:10:17;;;;;;;4.50;1.17;;;;;;;11.07;100.00;100646.25;4946086;28;20443;-78
2023/09/23 00:12:43;;;;;;;3.50;0.90;;;;;;;12.41;100.00;100870.00;4939895;28;20211;-78
2023/09/23 00:15:12;;;;;;;2.50;1.03;;;;;;;12.41;100.00;100822.41;4943249;28;20207;-77
2023/09/23 00:17:39;;;;;;;3.27;1.00;;;;;;;10.77;100.00;100556.47;4940407;28;20199;-79
2023/09/23 00:20:16;;;;;;;3.60;1.20;;;;;;;12.04;100.00;100778.25;4957130;28;20489;-77
2023/09/23 00:22:42;;;;;;;5.13;1.37;;;;;;;12.62;100.00;100866.22;4960279;28;20466;-78
2023/09/23 00:25:09;;;;;;;3.63;1.53;;;;;;;11.39;100.00;100656.34;4957677;28;20449;-79
2023/09/23 00:27:34;;;;;;;4.93;1.70;;;;;;;10.91;100.00;100641.31;4942347;28;20441;-78
2023/09/23 00:30:00;;;;;;;3.60;1.17;;;;;;;11.89;100.00;100722.03;4937998;28;20454;-78
2023/09/23 00:32:26;;;;;;;2.73;1.27;;;;;;;10.54;100.00;100505.94;4940911;28;20763;-79
2023/09/23 00:34:51;;;;;;;3.20;1.67;;;;;;;11.87;100.00;100771.66;4942651;28;20466;-78
2023/09/23 00:37:17;;;;;;;4.37;1.50;;;;;;;12.28;100.00;100821.63;4944352;28;20183;-78
2023/09/23 00:39:43;;;;;;;3.27;1.60;;;;;;;11.87;100.00;100721.41;4943444;28;20290;-79
2023/09/23 00:42:12;;;;;;;2.83;1.37;;;;;;;12.13;100.00;100781.53;4946393;28;20203;-78
2023/09/23 00:44:40;;;;;;;2.80;1.30;;;;;;;10.90;100.00;100571.72;4942415;28;21051;-79
2023/09/23 00:47:13;;;;;;;4.63;1.80;;;;;;;11.78;100.00;100787.13;4942711;28;20533;-78
2023/09/23 00:49:41;;;;;;;3.57;1.60;;;;;;;10.68;100.00;100576.50;4946470;28;20439;-79
2023/09/23 00:52:08;;;;;;;5.47;1.53;;;;;;;11.06;100.00;100679.50;4948322;28;21047;-79
2023/09/23 00:54:41;;;;;;;3.37;1.60;;;;;;;12.34;100.00;100885.31;4945921;28;21177;-78
2023/09/23 00:57:07;;;;;;;4.10;1.80;;;;;;;11.53;100.00;100760.06;4948334;28;20445;-78
2023/09/23 00:59:35;;;;;;;4.43;2.00;;;;;;;11.41;100.00;100705.31;4949560;28;20926;-78
2023/09/23 01:02:02;;;;;;;3.77;1.67;;;;;;;11.41;100.00;100767.09;4948065;28;20485;-79
2023/09/23 01:04:28;;;;;;;3.40;1.50;;;;;;;10.70;100.00;100690.59;4948406;28;20435;-79
2023/09/23 01:06:53;;;;;;;3.67;1.90;;;;;;;10.30;100.00;100599.34;4989449;23;20429;-80
2023/09/23 01:09:21;;;;;;;4.30;2.03;;;;;;;10.41;100.00;100611.31;5007520;28;20201;-81
2023/09/23 01:11:49;;;;;;;3.97;1.90;;;;;;;11.42;100.00;100814.38;4997882;28;20233;-80
2023/09/23 01:14:15;;;;;;;4.03;1.43;;;;;;;11.20;100.00;100738.56;4986879;28;20449;-80
2023/09/23 01:16:41;;;;;;;4.37;1.80;;;;;;;11.75;100.00;100862.78;4987421;28;20821;-81
2023/09/23 01:19:06;;;;;;;3.40;1.80;;;;;;;10.83;100.00;100685.25;4986175;28;20196;-80
2023/09/23 01:21:33;;;;;;;4.20;1.80;;;;;;;10.95;100.00;100717.69;4985710;28;20444;-80
2023/09/23 01:23:58;;;;;;;3.20;1.60;;;;;;;11.69;100.00;100842.13;5000057;28;20194;-81
2023/09/23 01:26:24;;;;;;;3.23;1.47;;;;;;;11.33;100.00;100797.66;4985902;28;20460;-81
2023/09/23 01:28:49;;;;;;;3.30;1.60;;;;;;;11.31;100.00;100757.59;4984522;28;20284;-81
2023/09/23 01:31:15;;;;;;;4.37;1.93;;;;;;;11.12;100.00;100723.50;4985194;28;20189;-80
2023/09/23 01:33:40;;;;;;;3.20;1.70;;;;;;;12.21;100.00;100924.66;4986082;28;20213;-80
2023/09/23 01:36:06;;;;;;;7.20;1.50;;;;;;;12.36;100.00;100937.88;4992707;28;20210;-80
2023/09/23 01:38:32;;;;;;;3.10;1.30;;;;;;;12.05;100.00;100968.06;4990023;28;20699;-80
2023/09/23 01:40:59;;;;;;;3.57;1.80;;;;;;;11.32;100.00;100873.88;4990019;28;20194;-80
2023/09/23 01:43:25;;;;;;;3.37;1.40;;;;;;;11.30;100.00;100835.66;5005883;28;20495;-80
2023/09/23 01:45:52;;;;;;;3.23;1.47;;;;;;;10.80;100.00;100738.50;4986845;28;20571;-81
2023/09/23 01:48:17;;;;;;;3.00;1.40;;;;;;;10.73;100.00;100780.56;5005316;28;20181;-80
2023/09/23 01:50:43;;;;;;;3.90;1.30;;;;;;;11.30;100.00;100857.94;4988886;28;20445;-80
2023/09/23 01:53:09;;;;;;;3.17;1.23;;;;;;;10.90;100.00;100797.97;4988791;28;20225;-81
2023/09/23 01:55:34;;;;;;;2.30;1.00;;;;;;;10.69;100.00;100704.22;4987395;28;20477;-81
2023/09/23 01:58:01;;;;;;;4.30;0.93;;;;;;;11.22;100.00;100825.91;4989309;28;20228;-80
2023/09/23 02:00:26;;;;;;;3.80;1.20;;;;;;;10.74;100.00;100717.84;4989832;28;20186;-80
2023/09/23 02:02:55;;;;;;;2.43;0.93;;;;;;;10.51;100.00;100735.09;4987613;28;20464;-80
2023/09/23 02:05:27;;;;;;;3.20;1.10;;;;;;;10.70;100.00;100789.00;4989009;28;20185;-81
2023/09/23 02:07:53;;;;;;;3.13;1.17;;;;;;;11.24;100.00;100820.34;4990410;28;20451;-80
2023/09/23 02:10:24;;;;;;;2.50;0.90;;;;;;;10.58;100.00;100708.31;4986612;28;20468;-80
2023/09/23 02:12:50;;;;;;;2.70;1.20;;;;;;;10.70;100.00;100803.25;4984972;28;20456;-80
2023/09/23 02:15:15;;;;;;;2.70;1.00;;;;;;;11.12;100.00;100862.25;4989112;28;20460;-80
2023/09/23 02:17:44;;;;;;;3.43;1.33;;;;;;;12.02;100.00;101040.25;4986758;28;20228;-79
2023/09/23 02:20:20;;;;;;;3.23;1.20;;;;;;;11.84;100.00;100992.41;4986247;28;20185;-80
2023/09/23 02:22:47;;;;;;;3.10;1.10;;;;;;;10.89;100.00;100876.81;4986905;28;20511;-80
2023/09/23 02:25:14;;;;;;;3.90;1.50;;;;;;;11.20;100.00;100939.94;4986901;28;20915;-80
2023/09/23 02:27:44;;;;;;;2.20;0.80;;;;;;;10.01;100.00;100765.75;4987209;28;20444;-81
2023/09/23 02:30:11;;;;;;;2.97;1.10;;;;;;;10.52;100.00;100832.47;4986734;28;20499;-81
2023/09/23 02:32:41;;;;;;;4.10;1.30;;;;;;;10.28;100.00;100815.03;5002131;28;20481;-80
2023/09/23 02:35:11;;;;;;;3.20;1.00;;;;;;;10.29;100.00;100902.47;4981445;28;20496;-80
2023/09/23 02:37:44;;;;;;;4.30;1.00;;;;;;;9.85;100.00;100789.16;4986542;28;20448;-80
2023/09/23 02:40:17;;;;;;;2.30;1.00;;;;;;;10.89;100.00;101028.97;4986119;28;20556;-79
2023/09/23 02:42:47;;;;;;;2.73;1.10;;;;;;;9.91;100.00;100812.47;4988322;28;20460;-79
2023/09/23 02:45:15;;;;;;;2.90;1.40;;;;;;;10.18;100.00;100837.63;4991309;28;20956;-80
2023/09/23 02:47:43;;;;;;;3.40;1.20;;;;;;;12.89;100.00;101268.91;4988149;28;20987;-81
2023/09/23 02:50:10;;;;;;;4.20;1.60;;;;;;;11.67;100.00;101094.88;5006958;28;20539;-80
2023/09/23 02:52:40;;;;;;;2.70;1.30;;;;;;;10.28;100.00;100876.69;4987673;28;21041;-80
2023/09/23 02:55:12;;;;;;;5.07;1.90;;;;;;;11.20;100.00;101074.19;4991166;28;20475;-80
2023/09/23 02:57:38;;;;;;;3.67;1.40;;;;;;;10.73;100.00;100941.53;4991174;28;20433;-81
2023/09/23 03:00:16;;;;;;;3.77;2.10;;;;;;;10.10;100.00;100866.44;4989539;28;21061;-80
2023/09/23 03:02:45;;;;;;;3.20;1.60;;;;;;;10.33;100.00;100957.38;4991227;28;20981;-80
2023/09/23 03:05:16;;;;;;;3.10;1.30;;;;;;;11.32;100.00;101088.72;4988082;28;20528;-80
2023/09/23 03:07:42;;;;;;;4.50;1.20;;;;;;;10.33;100.00;100928.69;4989553;28;20456;-80
2023/09/23 03:10:12;;;;;;;3.90;1.53;;;;;;;10.10;100.00;100907.47;4989612;28;20441;-79
2023/09/23 03:12:43;;;;;;;3.10;1.30;;;;;;;10.52;100.00;100945.94;4986874;28;20802;-79
2023/09/23 03:15:14;;;;;;;2.60;1.20;;;;;;;9.97;100.00;100880.53;4989009;28;20457;-80
2023/09/23 03:17:42;;;;;;;2.63;1.20;;;;;;;11.25;100.00;101122.72;4988814;28;20433;-79
2023/09/23 03:20:10;;;;;;;3.23;0.90;;;;;;;11.71;100.00;101167.84;4989153;28;20536;-79
2023/09/23 03:22:36;;;;;;;2.40;1.00;;;;;;;11.66;100.00;101175.69;4984689;28;20456;-79
2023/09/23 03:25:03;;;;;;;3.13;1.10;;;;;;;10.80;100.00;101072.03;4987823;28;20446;-80
2023/09/23 03:27:28;;;;;;;3.37;1.07;;;;;;;10.11;100.00;100938.59;4990464;28;20661;-79
2023/09/23 03:29:55;;;;;;;2.27;0.80;;;;;;;11.76;100.00;101168.09;4988308;28;20532;-79
2023/09/23 03:32:20;;;;;;;3.97;1.07;;;;;;;10.48;100.00;101019.78;5004641;28;20205;-79
2023/09/23 03:34:50;;;;;;;3.43;1.10;;;;;;;11.60;100.00;101177.31;4989790;28;20545;-79
2023/09/23 03:37:16;;;;;;;3.30;0.90;;;;;;;11.46;100.00;101146.84;4984371;28;20220;-80
2023/09/23 03:39:41;;;;;;;3.97;0.97;;;;;;;10.09;100.00;100892.38;4989969;28;20511;-79
2023/09/23 03:42:07;;;;;;;4.00;1.27;;;;;;;9.97;100.00;100915.38;4983923;28;20198;-80
2023/09/23 03:44:35;;;;;;;4.83;1.10;;;;;;;10.49;100.00;101045.56;4988922;28;20186;-80
2023/09/23 03:47:01;;;;;;;7.63;1.40;;;;;;;11.68;100.00;101171.75;5004612;28;20193;-80
2023/09/23 03:49:26;;;;;;;3.93;1.30;;;;;;;10.01;100.00;100897.06;4984557;28;20449;-80
2023/09/23 03:51:52;;;;;;;3.10;1.30;;;;;;;9.72;100.00;100872.94;4988446;28;20212;-80
2023/09/23 03:54:17;;;;;;;2.60;1.20;;;;;;;10.79;100.00;101026.59;4990002;28;20200;-81
2023/09/23 03:56:43;;;;;;;4.77;1.40;;;;;;;10.50;100.00;101047.25;4989507;28;20182;-79
2023/09/23 03:59:08;;;;;;;2.80;1.23;;;;;;;10.21;100.00;101063.41;4985196;28;20213;-80
2023/09/23 04:01:36;;;;;;;3.30;1.37;;;;;;;11.21;100.00;101204.72;4988718;28;20196;-80
2023/09/23 04:04:03;;;;;;;3.37;1.40;;;;;;;9.99;100.00;100998.25;4991071;28;20178;-80
2023/09/23 04:06:30;;;;;;;3.77;1.83;;;;;;;10.62;100.00;101144.13;4989906;28;20461;-79
2023/09/23 04:08:58;;;;;;;4.47;2.17;;;;;;;9.71;100.00;100975.72;4990095;28;20488;-80
2023/09/23 04:11:27;;;;;;;3.90;2.10;;;;;;;9.63;100.00;100967.81;4989256;28;20441;-80
2023/09/23 04:13:55;;;;;;;3.20;1.80;;;;;;;9.63;100.00;100975.00;5006080;28;20449;-80
2023/09/23 04:16:21;;;;;;;4.00;2.10;;;;;;;10.39;100.00;101139.75;4993154;28;20500;-80
2023/09/23 04:18:47;;;;;;;4.03;2.03;;;;;;;10.65;100.00;101154.47;4989814;28;20801;-80
2023/09/23 04:21:13;;;;;;;4.60;2.10;;;;;;;10.60;100.00;101203.31;4990357;28;20529;-80
2023/09/23 04:23:39;;;;;;;4.90;2.70;;;;;;;10.27;100.00;101160.03;4987400;28;20213;-79
2023/09/23 04:26:05;;;;;;;6.77;2.77;;;;;;;11.05;100.00;101272.91;4988888;28;20437;-79
2023/09/23 04:28:31;;;;;;;5.80;2.57;;;;;;;9.47;100.00;101016.22;4986982;28;20186;-78
2023/09/23 04:30:57;;;;;;;4.60;2.90;;;;;;;10.50;100.00;101215.34;4988588;28;20190;-78
2023/09/23 04:33:25;;;;;;;4.10;2.53;;;;;;;9.41;100.00;101016.97;4988778;28;20847;-79
2023/09/23 04:35:51;;;;;;;6.43;3.00;;;;;;;10.08;100.00;101164.09;4988380;28;21196;-79
2023/09/23 04:38:17;;;;;;;4.50;3.07;;;;;;;10.41;100.00;101209.28;4990411;28;20452;-79
2023/09/23 04:40:42;;;;;;;5.70;3.20;;;;;;;9.45;100.00;101050.38;4988242;28;20660;-78
2023/09/23 04:43:10;;;;;;;5.83;3.70;;;;;;;10.04;100.00;101215.56;4987967;28;20204;-79
2023/09/23 04:45:35;;;;;;;5.93;3.43;;;;;;;9.86;100.00;101165.06;4986266;28;20181;-79
2023/09/23 04:48:01;;;;;;;4.50;2.90;;;;;;;10.87;100.00;101313.59;4986592;28;20872;-79
2023/09/23 04:50:28;;;;;;;5.37;4.37;;;;;;;10.92;100.00;101313.88;4986974;28;20736;-79
2023/09/23 04:52:53;;;;;;;5.20;3.63;;;;;;;9.53;100.00;101119.91;4988002;28;20613;-79
2023/09/23 04:55:19;;;;;;;5.20;3.13;;;;;;;11.14;100.00;101429.34;4988625;28;20468;-79
2023/09/23 04:57:44;;;;;;;5.40;3.70;;;;;;;11.09;100.00;101368.16;4988606;28;20192;-79
2023/09/23 05:00:13;;;;;;;5.70;3.40;;;;;;;9.70;100.00;101153.53;4986786;28;20440;-79
2023/09/23 05:02:39;;;;;;;5.70;3.70;;;;;;;10.88;100.00;101393.09;5003650;28;20210;-78
2023/09/23 05:05:05;;;;;;;4.97;3.70;;;;;;;9.91;100.00;101232.31;4986555;28;20436;-79
2023/09/23 05:07:30;;;;;;;6.77;4.30;;;;;;;9.61;100.00;101113.63;4986054;28;20251;-79
2023/09/23 05:09:55;;;;;;;7.30;4.53;;;;;;;9.62;100.00;101191.09;4986170;28;20189;-78
2023/09/23 05:12:21;;;;;;;7.67;5.07;;;;;;;10.23;100.00;101305.34;4986868;28;20212;-79
2023/09/23 05:14:47;;;;;;;5.83;3.50;;;;;;;10.56;100.00;101354.09;4988384;28;20680;-78
2023/09/23 05:17:14;;;;;;;5.37;3.97;;;;;;;10.85;100.00;101394.31;4987165;28;20528;-78
2023/09/23 05:19:40;;;;;;;5.90;3.83;;;;;;;12.09;100.00;101605.75;4986771;28;20201;-79
2023/09/23 05:22:08;;;;;;;5.60;3.80;;;;;;;9.79;100.00;101209.69;4987442;28;20461;-79
2023/09/23 05:24:33;;;;;;;7.30;4.40;;;;;;;10.79;100.00;101423.72;4987262;28;20448;-79
2023/09/23 05:27:00;;;;;;;5.70;3.80;;;;;;;9.24;100.00;101172.41;4983105;28;20451;-79
2023/09/23 05:29:26;;;;;;;7.10;3.67;;;;;;;9.87;100.00;101220.31;4988812;28;20185;-79
2023/09/23 05:31:52;;;;;;;5.60;3.57;;;;;;;9.38;100.00;101157.41;4988735;28;20551;-79
2023/09/23 05:34:20;;;;;;;6.80;3.97;;;;;;;10.30;100.00;101350.03;4989025;28;20588;-79
2023/09/23 05:36:46;;;;;;;6.13;3.70;;;;;;;10.15;100.00;101349.13;4986995;28;20191;-80
2023/09/23 05:39:15;;;;;;;7.10;3.63;;;;;;;9.41;100.00;101196.34;4988124;28;20429;-79
2023/09/23 05:41:41;;;;;;;7.13;4.20;;;;;;;10.48;100.00;101387.19;4986299;28;20460;-79
2023/09/23 05:44:07;;;;;;;7.40;5.40;;;;;;;11.55;100.00;101566.63;4986620;28;20447;-79
2023/09/23 05:46:35;;;;;;;8.90;6.67;;;;;;;9.37;100.00;101184.34;4983795;28;20444;-79
2023/09/23 05:49:00;;;;;;;11.03;6.07;;;;;;;9.33;100.00;101175.84;4987408;28;20433;-79
2023/09/23 05:51:26;;;;;;;10.03;8.13;;;;;;;10.03;100.00;101332.69;4984016;28;20441;-79
2023/09/23 05:53:51;;;;;;;10.17;7.10;;;;;;;10.02;100.00;101340.91;4985712;28;20185;-80
2023/09/23 05:56:17;;;;;;;12.27;8.73;;;;;;;10.88;100.00;101464.72;4983856;28;20571;-79
2023/09/23 05:58:42;;;;;;;10.80;9.70;;;;;;;10.86;100.00;101446.13;4998287;28;20197;-80
2023/09/23 06:01:07;;;;;;;11.10;9.50;;;;;;;10.28;100.00;101399.50;4984839;28;20187;-80
2023/09/23 06:03:33;;;;;;;11.23;8.90;;;;;;;9.60;100.00;101276.16;4984444;28;20221;-79
2023/09/23 06:05:58;;;;;;;9.70;7.80;;;;;;;10.19;100.00;101379.94;4981389;28;20560;-79
2023/09/23 06:08:24;;;;;;;14.27;6.90;;;;;;;9.10;100.00;101188.44;4985254;28;20530;-79
2023/09/23 06:10:50;;;;;;;6.47;4.77;;;;;;;10.31;100.00;101420.56;4988944;28;20689;-78
2023/09/23 06:13:16;;;;;;;10.40;5.07;;;;;;;9.29;100.00;101222.75;4984495;28;20614;-78
2023/09/23 06:15:41;;;;;;;6.60;4.50;;;;;;;10.86;100.00;101483.69;4990261;28;20551;-79
2023/09/23 06:18:06;;;;;;;7.07;4.47;;;;;;;10.47;100.00;101474.06;4986588;28;20195;-79
2023/09/23 06:20:34;;;;;;;5.23;3.53;;;;;;;10.60;100.00;101446.59;4992493;28;20196;-79
2023/09/23 06:23:00;;;;;;;7.70;5.20;;;;;;;10.35;100.00;101419.19;5006566;28;20232;-79
2023/09/23 06:25:25;;;;;;;5.13;3.93;;;;;;;10.86;100.00;101473.78;4989724;28;20432;-80
2023/09/23 06:27:51;;;;;;;7.13;4.23;;;;;;;10.84;100.00;101491.09;4990972;28;20197;-79
2023/09/23 06:30:17;;;;;;;6.10;3.80;;;;;;;9.59;100.00;101290.56;4988234;28;20189;-79
2023/09/23 06:32:44;;;;;;;5.50;3.73;;;;;;;10.37;100.00;101415.31;4990691;28;20217;-80
2023/09/23 06:35:14;;;;;;;6.40;4.43;;;;;;;9.69;100.00;101295.66;4992593;28;20838;-80
2023/09/23 06:37:39;;;;;;;5.90;4.20;;;;;;;10.98;100.00;101527.84;4994511;28;20948;-79
2023/09/23 06:40:06;;;;;;;7.03;4.40;;;;;;;10.75;100.00;101460.00;4994183;28;20533;-79
2023/09/23 06:42:31;;;;;;;6.57;4.30;;;;;;;9.57;100.00;101289.09;4993402;28;20209;-79
2023/09/23 06:44:58;;;;;;;7.83;3.90;;;;;;;8.74;100.00;101165.00;5009498;28;20927;-79
2023/09/23 06:47:24;;;;;;;6.03;3.90;;;;;;;9.79;100.00;101290.88;4992970;28;20182;-80
2023/09/23 06:49:49;;;;;;;7.57;4.67;;;;;;;10.82;100.00;101528.03;4991229;28;20519;-79
2023/09/23 06:52:15;;;;;;;8.03;4.30;;;;;;;10.80;100.00;101517.47;4989541;28;20216;-79
2023/09/23 06:54:41;;;;;;;6.60;4.00;;;;;;;9.37;100.00;101310.16;4993008;28;20217;-79
2023/09/23 06:57:06;;;;;;;11.40;5.57;;;;;;;9.66;100.00;101331.69;4992489;28;20425;-79
2023/09/23 06:59:32;;;;;;;7.30;4.50;;;;;;;9.13;100.00;101245.09;4992188;28;20609;-79
2023/09/23 07:01:57;;;;;;;5.93;4.70;;;;;;;10.90;100.00;101492.22;5009418;28;20213;-79
2023/09/23 07:04:23;;;;;;;10.37;4.63;;;;;;;11.01;100.00;101551.63;4994134;28;20181;-79
2023/09/23 07:06:48;;;;;;;5.93;4.03;;;;;;;10.56;100.00;101419.31;4987601;28;20173;-80
2023/09/23 07:09:14;;;;;;;5.80;4.07;;;;;;;11.23;100.00;101575.91;4989781;28;20552;-79
2023/09/23 07:11:40;;;;;;;8.07;5.00;;;;;;;11.45;100.00;101588.41;4991192;28;20546;-79
2023/09/23 07:14:06;;;;;;;7.50;5.63;;;;;;;12.23;100.00;101704.38;4990087;28;20637;-79
2023/09/23 07:16:34;;;;;;;7.73;5.70;;;;;;;10.98;100.00;101530.53;4989988;28;20479;-79
2023/09/23 07:19:03;;;;;;;8.63;6.73;;;;;;;9.66;100.00;101288.84;4990669;28;20433;-79
2023/09/23 07:21:29;;;;;;;15.90;6.70;;;;;;;10.42;100.00;101417.44;5005819;28;20929;-80
2023/09/23 07:23:54;;;;;;;9.80;8.20;;;;;;;10.28;100.00;101439.72;4990992;28;20429;-80
2023/09/23 07:26:21;;;;;;;8.60;7.40;;;;;;;10.05;100.00;101381.56;4983064;28;20429;-80
2023/09/23 07:28:47;;;;;;;10.43;8.33;;;;;;;10.78;100.00;101494.53;5005421;23;20245;-67
2023/09/23 07:31:12;;;;;;;11.20;8.70;;;;;;;11.80;100.00;101653.13;4987419;28;20456;-67
2023/09/23 07:33:38;;;;;;;12.23;10.53;;;;;;;11.37;100.00;101612.69;4968546;28;20211;-67
2023/09/23 07:36:13;;;;;;;13.70;10.47;;;;;;;12.04;100.00;101710.38;4968633;28;20182;-67
2023/09/23 07:38:39;;;;;;;10.60;9.10;;;;;;;11.48;100.00;101617.56;4962229;28;20186;-68
2023/09/23 07:41:05;;;;;;;13.27;10.47;;;;;;;12.16;100.00;101735.75;4967099;28;20448;-67
2023/09/23 07:43:31;;;;;;;13.07;10.97;;;;;;;12.04;100.00;101729.19;4965112;28;20271;-67
2023/09/23 07:45:57;;;;;;;11.23;9.80;;;;;;;12.20;100.00;101720.91;4966488;28;21281;-68
2023/09/23 07:48:22;;;;;;;16.00;11.97;;;;;;;11.87;100.00;101712.41;4966747;28;20468;-67
2023/09/23 07:50:48;;;;;;;21.70;10.97;;;;;;;12.03;100.00;101708.69;4966183;28;20233;-67
2023/09/23 07:53:13;;;;;;;13.10;9.97;;;;;;;12.18;100.00;101731.03;4963664;28;20210;-68
2023/09/23 07:55:39;;;;;;;11.67;10.20;;;;;;;11.82;100.00;101674.47;4966836;28;20206;-68
2023/09/23 07:58:05;;;;;;;12.00;9.40;;;;;;;12.47;100.00;101757.03;4967951;28;20217;-68
2023/09/23 08:00:30;;;;;;;13.13;10.77;;;;;;;12.36;100.00;101749.47;4983629;28;20201;-68
2023/09/23 08:02:56;;;;;;;14.40;11.77;;;;;;;12.24;100.00;101761.69;4967084;28;20480;-67
2023/09/23 08:05:24;;;;;;;13.47;10.10;;;;;;;11.89;100.00;101670.88;4964240;28;20230;-67
2023/09/23 08:07:51;;;;;;;13.77;10.13;;;;;;;11.69;100.00;101624.06;4963748;28;20270;-67
2023/09/23 08:10:17;;;;;;;11.23;10.00;;;;;;;12.20;100.00;101702.91;4958571;28;20442;-67
2023/09/23 08:12:43;;;;;;;11.83;9.73;;;;;;;12.97;100.00;101760.69;4966407;28;20607;-67
2023/09/23 08:15:09;;;;;;;16.70;11.33;;;;;;;12.00;100.00;101664.16;4963417;28;20516;-67
2023/09/23 08:17:34;;;;;;;13.13;10.60;;;;;;;12.06;100.00;101687.63;4965981;28;20183;-68
2023/09/23 08:20:07;;;;;;;12.80;11.10;;;;;;;12.10;100.00;101680.03;4965418;28;20437;-67
2023/09/23 08:22:39;;;;;;;16.20;11.70;;;;;;;12.73;100.00;101779.88;4967873;28;20221;-68
2023/09/23 08:25:05;;;;;;;13.80;11.23;;;;;;;12.37;100.00;101730.41;4965664;28;20509;-67
2023/09/23 08:27:31;;;;;;;13.00;11.63;;;;;;;11.87;100.00;101621.00;4963930;28;21268;-67
2023/09/23 08:29:56;;;;;;;13.30;11.90;;;;;;;12.61;100.00;101736.47;4954597;28;20550;-67
2023/09/23 08:32:22;;;;;;;13.70;11.53;;;;;;;13.00;100.00;101768.38;4961361;28;20210;-67
2023/09/23 08:34:47;;;;;;;12.43;10.10;;;;;;;13.14;100.00;101737.03;4981969;28;20190;-68
2023/09/23 08:37:12;;;;;;;13.70;10.00;;;;;;;13.27;100.00;101747.94;4979922;28;20626;-67
2023/09/23 08:39:38;;;;;;;12.77;11.00;;;;;;;13.34;100.00;101774.94;4964783;28;20193;-67
2023/09/23 08:42:04;;;;;;;17.23;11.53;;;;;;;13.28;100.00;101771.16;4975424;28;20729;-67
2023/09/23 08:44:33;;;;;;;15.03;11.27;;;;;;;13.36;100.00;101767.47;4965813;28;20250;-67
2023/09/23 08:46:59;;;;;;;12.20;10.73;;;;;;;13.10;100.00;101719.56;4965326;28;20521;-69
2023/09/23 08:49:26;;;;;;;14.83;11.00;;;;;;;13.19;100.00;101736.44;4965186;28;20445;-66
2023/09/23 08:51:55;;;;;;;12.03;9.10;;;;;;;13.09;100.00;101669.44;4979837;28;20210;-68
2023/09/23 08:54:25;;;;;;;12.37;9.90;;;;;;;13.66;100.00;101740.38;4966450;28;20434;-68
2023/09/23 08:56:52;;;;;;;12.33;9.33;;;;;;;13.24;100.00;101647.78;4979440;28;20568;-68
2023/09/23 08:59:17;;;;;;;11.27;9.10;;;;;;;13.86;100.00;101751.28;4980061;28;20453;-68
2023/09/23 09:01:44;;;;;;;8.43;7.43;;;;;;;13.27;100.00;101652.81;4969642;28;20866;-68
2023/09/23 09:04:15;;;;;;;13.83;8.97;;;;;;;13.76;100.00;101751.63;4965278;28;20186;-66
2023/09/23 09:06:54;;;;;;;11.57;8.27;;;;;;;13.51;100.00;101664.97;4965882;28;20473;-66
2023/09/23 09:09:19;;;;;;;10.73;8.13;;;;;;;13.99;100.00;101717.09;4951706;28;20441;-66
2023/09/23 09:11:49;;;;;;;10.00;8.20;;;;;;;14.17;100.00;101738.13;4963346;28;20587;-66
2023/09/23 09:14:16;;;;;;;9.53;8.13;;;;;;;13.98;100.00;101734.31;4952323;28;20185;-66
2023/09/23 09:16:41;;;;;;;9.30;7.80;;;;;;;14.23;100.00;101734.66;4968425;28;20437;-66
2023/09/23 09:19:06;;;;;;;10.17;9.00;;;;;;;14.24;100.00;101701.25;4964882;28;21036;-66
2023/09/23 09:21:34;;;;;;;12.37;8.43;;;;;;;14.38;100.00;101748.00;4963330;28;20645;-66
2023/09/23 09:24:00;;;;;;;10.90;8.00;;;;;;;13.87;100.00;101662.06;4953236;28;20186;-65
2023/09/23 09:26:25;;;;;;;11.40;8.40;;;;;;;14.35;100.00;101728.66;4964899;28;20599;-66
2023/09/23 09:28:51;;;;;;;13.47;8.53;;;;;;;14.39;100.00;101740.72;4960445;28;20818;-65
2023/09/23 09:31:17;;;;;;;11.13;7.50;;;;;;;13.70;100.00;101640.00;4960719;28;20798;-65
2023/09/23 09:33:50;;;;;;;9.27;7.40;;;;;;;14.65;100.00;101721.13;4963631;28;20440;-66
2023/09/23 09:36:23;;;;;;;10.87;8.20;;;;;;;14.72;100.00;101732.75;4964199;28;21136;-66
2023/09/23 09:38:54;;;;;;;10.53;7.97;;;;;;;13.91;100.00;101633.66;4963551;28;20473;-66
2023/09/23 09:41:30;;;;;;;10.73;7.90;;;;;;;14.20;100.00;101721.56;4964435;28;20477;-66
2023/09/23 09:44:00;;;;;;;8.60;6.83;;;;;;;13.98;100.00;101631.84;4960800;28;20512;-66
2023/09/23 09:46:29;;;;;;;9.27;5.53;;;;;;;14.83;100.00;101731.31;4964559;28;20469;-66
2023/09/23 09:48:57;;;;;;;11.87;7.70;;;;;;;14.56;100.00;101720.47;4964117;28;20545;-67
2023/09/23 09:51:23;;;;;;;9.17;5.97;;;;;;;14.83;100.00;101715.13;4952472;28;20523;-68
2023/09/23 09:53:50;;;;;;;8.00;5.30;;;;;;;14.89;100.00;101669.19;4980515;28;20453;-67
2023/09/23 09:56:17;;;;;;;7.17;4.93;;;;;;;14.67;100.00;101652.38;4966598;28;20437;-67
2023/09/23 09:58:42;;;;;;;12.00;6.03;;;;;;;14.49;100.00;101633.19;4964003;28;20445;-69
2023/09/23 10:01:12;;;;;;;7.50;5.77;;;;;;;15.33;100.00;101726.34;4964677;28;20478;-67
2023/09/23 10:03:41;;;;;;;8.20;5.60;;;;;;;15.08;100.00;101731.56;4977755;28;20225;-67
2023/09/23 10:06:07;;;;;;;7.43;5.50;;;;;;;14.40;100.00;101646.06;4964951;28;20474;-66
2023/09/23 10:08:38;;;;;;;6.70;4.90;;;;;;;15.01;100.00;101726.16;4944219;28;20461;-67
2023/09/23 10:11:08;;;;;;;8.50;5.30;;;;;;;14.50;100.00;101623.25;4977741;28;20444;-66
2023/09/23 10:13:34;;;;;;;8.60;4.87;;;;;;;14.70;100.00;101607.94;4961031;28;20461;-67
2023/09/23 10:16:19;;;;;;;6.10;4.13;;;;;;;15.23;100.00;101623.28;4978725;28;20797;-67
2023/09/23 10:18:53;;;;;;;6.97;4.30;;;;;;;15.48;100.00;101683.75;4976289;28;20560;-67
2023/09/23 10:21:29;;;;;;;6.63;4.23;;;;;;;15.56;100.00;101686.22;4977765;28;20450;-67
2023/09/23 10:23:56;;;;;;;7.67;4.33;;;;;;;15.14;100.00;101588.34;4958805;28;20536;-67
2023/09/23 10:26:25;;;;;;;6.00;3.70;;;;;;;16.23;100.00;101675.19;4965352;28;20516;-67
2023/09/23 10:29:01;;;;;;;5.93;3.70;;;;;;;15.90;100.00;101684.25;4959808;28;20910;-69
2023/09/23 10:31:27;;;;;;;5.13;3.00;;;;;;;16.20;100.00;101614.19;4963990;28;20441;-68
2023/09/23 10:33:54;;;;;;;7.33;3.50;;;;;;;16.29;100.00;101666.22;4963200;28;20438;-68
2023/09/23 10:36:21;;;;;;;5.80;3.10;;;;;;;16.12;100.00;101659.63;4963152;28;20437;-68
2023/09/23 10:38:46;;;;;;;7.30;2.60;;;;;;;15.20;100.00;101546.16;4957002;28;21006;-68
2023/09/23 10:41:12;;;;;;;5.47;2.20;;;;;;;15.20;100.00;101539.91;4960561;28;20465;-68
2023/09/23 10:43:37;;;;;;;6.43;2.70;;;;;;;15.37;100.00;101531.13;4960358;28;20206;-67
2023/09/23 10:46:04;;;;;;;3.43;1.83;;;;;;;16.30;100.00;101631.84;4961898;28;20206;-68
2023/09/23 10:48:31;;;;;;;3.53;2.00;;;;;;;16.12;100.00;101544.09;4963612;28;20202;-68
2023/09/23 10:50:58;;;;;;;13.50;2.13;;;;;;;16.38;100.00;101627.00;4964021;28;20455;-68
2023/09/23 10:53:25;;;;;;;5.20;2.57;;;;;;;15.63;100.00;101526.66;4962302;28;20454;-68
2023/09/23 10:55:51;;;;;;;4.43;1.60;;;;;;;16.01;100.00;101529.38;4977518;28;20431;-68
2023/09/23 10:58:17;;;;;;;5.33;2.13;;;;;;;15.60;100.00;101517.09;4979190;28;20448;-68
2023/09/23 11:00:43;;;;;;;5.10;1.67;;;;;;;16.45;100.00;101600.69;4962955;28;20588;-68
2023/09/23 11:03:16;;;;;;;3.43;1.73;;;;;;;16.57;100.00;101594.56;4964449;28;20453;-68
2023/09/23 11:05:43;;;;;;;4.30;1.90;;;;;;;16.06;100.00;101506.25;4965489;28;20743;-69
2023/09/23 11:08:10;;;;;;;6.30;2.37;;;;;;;16.50;100.00;101571.09;4982392;28;20444;-68
2023/09/23 11:10:43;;;;;;;4.43;2.07;;;;;;;15.94;100.00;101474.50;4968006;28;20481;-69
2023/09/23 11:13:11;;;;;;;4.13;2.00;;;;;;;16.48;100.00;101542.56;4979473;28;20501;-68